Sorrento, Florida
Current Conditions -  °F | °C
As of 5:53 PM on Thursday 27 Nov 2014 (Local Time) from KLEE Reporting Station
Clear Clear  
Wind Chill: 15°   Ceiling: Unl
Heat Index: 15°   Visibility: 10mi
Dew Point:   Wind: 9mph
Humidity: 42%   Direction: 330°NNW
Pressure: 30.23"   Gusts: NA
Location:  28.81°N, 81.56°W
Report Text: KLEE 272253Z 33008KT 10SM CLR 15/02 A3023 RMK AO2 SLP236 T01500022
Loading
Personal Weather Stations






























Interactive Weather Map New forecast layout! Learn more

10-Day Weather Forecast

Advertisements
Track Severe Weather on mobile